sensor_id;sensor_type;location;lat;lon;timestamp;P1;durP1;ratioP1;P2;durP2;ratioP2
18720;SDS011;9489;50.948;3.114;2022-12-18T00:00:40;74.70;;;37.17;;
18720;SDS011;9489;50.948;3.114;2022-12-18T00:03:06;76.60;;;38.17;;
18720;SDS011;9489;50.948;3.114;2022-12-18T00:05:32;77.80;;;38.73;;
18720;SDS011;9489;50.948;3.114;2022-12-18T00:07:58;74.63;;;38.80;;
18720;SDS011;9489;50.948;3.114;2022-12-18T00:10:23;77.23;;;39.60;;
18720;SDS011;9489;50.948;3.114;2022-12-18T00:12:49;82.27;;;39.57;;
18720;SDS011;9489;50.948;3.114;2022-12-18T00:15:15;70.70;;;37.80;;
18720;SDS011;9489;50.948;3.114;2022-12-18T00:17:40;80.87;;;38.93;;
18720;SDS011;9489;50.948;3.114;2022-12-18T00:20:06;83.80;;;39.33;;
18720;SDS011;9489;50.948;3.114;2022-12-18T00:22:32;81.90;;;39.27;;
18720;SDS011;9489;50.948;3.114;2022-12-18T00:24:58;78.00;;;39.37;;
18720;SDS011;9489;50.948;3.114;2022-12-18T00:27:24;87.17;;;39.37;;
18720;SDS011;9489;50.948;3.114;2022-12-18T00:29:49;85.53;;;40.43;;
18720;SDS011;9489;50.948;3.114;2022-12-18T00:32:15;79.27;;;39.37;;
18720;SDS011;9489;50.948;3.114;2022-12-18T00:34:41;78.57;;;37.77;;
18720;SDS011;9489;50.948;3.114;2022-12-18T00:37:06;78.33;;;36.57;;
18720;SDS011;9489;50.948;3.114;2022-12-18T00:39:32;79.83;;;40.53;;
18720;SDS011;9489;50.948;3.114;2022-12-18T00:41:58;78.90;;;38.60;;
18720;SDS011;9489;50.948;3.114;2022-12-18T00:44:42;84.90;;;40.00;;
18720;SDS011;9489;50.948;3.114;2022-12-18T00:47:07;85.87;;;40.57;;
18720;SDS011;9489;50.948;3.114;2022-12-18T00:49:33;90.30;;;42.37;;
18720;SDS011;9489;50.948;3.114;2022-12-18T00:51:59;82.30;;;40.17;;
18720;SDS011;9489;50.948;3.114;2022-12-18T00:54:24;85.27;;;40.20;;
18720;SDS011;9489;50.948;3.114;2022-12-18T00:56:50;78.27;;;38.50;;
18720;SDS011;9489;50.948;3.114;2022-12-18T00:59:16;82.77;;;39.83;;
18720;SDS011;9489;50.948;3.114;2022-12-18T01:01:43;82.20;;;41.80;;
18720;SDS011;9489;50.948;3.114;2022-12-18T01:04:09;79.23;;;41.83;;
18720;SDS011;9489;50.948;3.114;2022-12-18T01:06:35;84.03;;;39.83;;
18720;SDS011;9489;50.948;3.114;2022-12-18T01:09:01;81.80;;;40.93;;
18720;SDS011;9489;50.948;3.114;2022-12-18T01:11:27;87.33;;;42.03;;
18720;SDS011;9489;50.948;3.114;2022-12-18T01:13:53;84.67;;;40.87;;
18720;SDS011;9489;50.948;3.114;2022-12-18T01:16:19;83.83;;;41.13;;
18720;SDS011;9489;50.948;3.114;2022-12-18T01:18:45;84.93;;;39.93;;
18720;SDS011;9489;50.948;3.114;2022-12-18T01:21:13;90.10;;;41.90;;
18720;SDS011;9489;50.948;3.114;2022-12-18T01:23:41;82.57;;;40.33;;
18720;SDS011;9489;50.948;3.114;2022-12-18T01:26:07;81.27;;;39.60;;
18720;SDS011;9489;50.948;3.114;2022-12-18T01:28:35;80.70;;;40.27;;
18720;SDS011;9489;50.948;3.114;2022-12-18T01:31:43;90.83;;;42.00;;
18720;SDS011;9489;50.948;3.114;2022-12-18T01:33:54;87.77;;;41.13;;
18720;SDS011;9489;50.948;3.114;2022-12-18T01:36:27;85.73;;;42.17;;
18720;SDS011;9489;50.948;3.114;2022-12-18T01:38:54;76.70;;;39.73;;
18720;SDS011;9489;50.948;3.114;2022-12-18T01:41:22;79.97;;;39.60;;
18720;SDS011;9489;50.948;3.114;2022-12-18T01:43:54;78.87;;;42.03;;
18720;SDS011;9489;50.948;3.114;2022-12-18T01:46:24;78.67;;;40.70;;
18720;SDS011;9489;50.948;3.114;2022-12-18T01:48:53;81.10;;;40.30;;
18720;SDS011;9489;50.948;3.114;2022-12-18T01:51:21;82.43;;;42.30;;
18720;SDS011;9489;50.948;3.114;2022-12-18T01:53:48;76.40;;;40.97;;
18720;SDS011;9489;50.948;3.114;2022-12-18T01:56:14;73.83;;;38.13;;
18720;SDS011;9489;50.948;3.114;2022-12-18T02:01:11;72.37;;;40.40;;
18720;SDS011;9489;50.948;3.114;2022-12-18T02:03:37;75.83;;;41.57;;
18720;SDS011;9489;50.948;3.114;2022-12-18T02:08:37;78.60;;;39.83;;
18720;SDS011;9489;50.948;3.114;2022-12-18T02:28:10;68.80;;;35.87;;
18720;SDS011;9489;50.948;3.114;2022-12-18T02:30:39;65.60;;;36.90;;
18720;SDS011;9489;50.948;3.114;2022-12-18T02:33:07;71.93;;;37.13;;
18720;SDS011;9489;50.948;3.114;2022-12-18T02:35:35;67.87;;;37.33;;
18720;SDS011;9489;50.948;3.114;2022-12-18T02:38:03;67.43;;;37.10;;
18720;SDS011;9489;50.948;3.114;2022-12-18T02:40:29;63.90;;;36.97;;
18720;SDS011;9489;50.948;3.114;2022-12-18T02:43:02;62.73;;;34.80;;
18720;SDS011;9489;50.948;3.114;2022-12-18T02:45:32;66.27;;;36.50;;
18720;SDS011;9489;50.948;3.114;2022-12-18T02:47:57;63.77;;;36.43;;
18720;SDS011;9489;50.948;3.114;2022-12-18T02:50:30;62.73;;;36.07;;
18720;SDS011;9489;50.948;3.114;2022-12-18T02:54:08;61.10;;;35.57;;
18720;SDS011;9489;50.948;3.114;2022-12-18T02:56:18;61.87;;;35.20;;
18720;SDS011;9489;50.948;3.114;2022-12-18T03:07:05;54.50;;;32.83;;
18720;SDS011;9489;50.948;3.114;2022-12-18T03:09:37;49.60;;;31.23;;
18720;SDS011;9489;50.948;3.114;2022-12-18T03:12:51;49.97;;;32.70;;
18720;SDS011;9489;50.948;3.114;2022-12-18T03:15:16;51.33;;;30.67;;
18720;SDS011;9489;50.948;3.114;2022-12-18T03:17:51;47.83;;;31.70;;
18720;SDS011;9489;50.948;3.114;2022-12-18T03:20:21;51.93;;;30.47;;
18720;SDS011;9489;50.948;3.114;2022-12-18T03:22:51;46.50;;;30.57;;
18720;SDS011;9489;50.948;3.114;2022-12-18T03:25:22;47.37;;;30.37;;
18720;SDS011;9489;50.948;3.114;2022-12-18T03:27:51;42.30;;;26.93;;
18720;SDS011;9489;50.948;3.114;2022-12-18T03:30:21;44.13;;;27.80;;
18720;SDS011;9489;50.948;3.114;2022-12-18T03:32:48;43.73;;;29.60;;
18720;SDS011;9489;50.948;3.114;2022-12-18T03:35:23;40.80;;;27.77;;
18720;SDS011;9489;50.948;3.114;2022-12-18T03:37:53;45.57;;;27.33;;
18720;SDS011;9489;50.948;3.114;2022-12-18T03:40:20;44.00;;;27.30;;
18720;SDS011;9489;50.948;3.114;2022-12-18T03:42:52;43.23;;;28.07;;
18720;SDS011;9489;50.948;3.114;2022-12-18T03:45:34;45.53;;;26.93;;
18720;SDS011;9489;50.948;3.114;2022-12-18T03:48:07;43.73;;;28.03;;
18720;SDS011;9489;50.948;3.114;2022-12-18T03:50:44;38.67;;;25.27;;
18720;SDS011;9489;50.948;3.114;2022-12-18T03:56:06;38.87;;;26.03;;
18720;SDS011;9489;50.948;3.114;2022-12-18T03:58:34;40.13;;;26.83;;
18720;SDS011;9489;50.948;3.114;2022-12-18T04:01:05;40.10;;;26.60;;
18720;SDS011;9489;50.948;3.114;2022-12-18T04:03:33;40.63;;;26.10;;
18720;SDS011;9489;50.948;3.114;2022-12-18T04:06:00;38.93;;;25.50;;
18720;SDS011;9489;50.948;3.114;2022-12-18T04:08:28;36.67;;;25.23;;
18720;SDS011;9489;50.948;3.114;2022-12-18T04:10:54;38.47;;;24.47;;
18720;SDS011;9489;50.948;3.114;2022-12-18T04:13:24;38.13;;;25.00;;
18720;SDS011;9489;50.948;3.114;2022-12-18T04:15:53;41.23;;;24.90;;
18720;SDS011;9489;50.948;3.114;2022-12-18T04:18:18;42.13;;;25.80;;
18720;SDS011;9489;50.948;3.114;2022-12-18T04:20:44;37.87;;;25.23;;
18720;SDS011;9489;50.948;3.114;2022-12-18T04:23:10;38.73;;;24.67;;
18720;SDS011;9489;50.948;3.114;2022-12-18T04:25:36;35.13;;;24.07;;
18720;SDS011;9489;50.948;3.114;2022-12-18T04:28:01;38.67;;;24.40;;
18720;SDS011;9489;50.948;3.114;2022-12-18T04:30:27;33.13;;;23.80;;
18720;SDS011;9489;50.948;3.114;2022-12-18T04:32:53;37.30;;;24.27;;
18720;SDS011;9489;50.948;3.114;2022-12-18T04:35:18;37.83;;;24.87;;
18720;SDS011;9489;50.948;3.114;2022-12-18T04:37:44;38.50;;;23.97;;
18720;SDS011;9489;50.948;3.114;2022-12-18T04:40:09;33.53;;;23.47;;
18720;SDS011;9489;50.948;3.114;2022-12-18T04:42:36;39.17;;;23.50;;
18720;SDS011;9489;50.948;3.114;2022-12-18T04:45:01;35.77;;;22.97;;
18720;SDS011;9489;50.948;3.114;2022-12-18T04:47:27;36.10;;;24.13;;
18720;SDS011;9489;50.948;3.114;2022-12-18T04:49:53;37.70;;;25.10;;
18720;SDS011;9489;50.948;3.114;2022-12-18T04:52:18;36.97;;;22.80;;
18720;SDS011;9489;50.948;3.114;2022-12-18T04:54:44;36.57;;;24.83;;
18720;SDS011;9489;50.948;3.114;2022-12-18T04:57:09;36.23;;;23.13;;
18720;SDS011;9489;50.948;3.114;2022-12-18T04:59:35;37.87;;;25.10;;
18720;SDS011;9489;50.948;3.114;2022-12-18T05:02:01;34.50;;;24.63;;
18720;SDS011;9489;50.948;3.114;2022-12-18T05:04:26;32.67;;;22.20;;
18720;SDS011;9489;50.948;3.114;2022-12-18T05:06:52;34.57;;;23.93;;
18720;SDS011;9489;50.948;3.114;2022-12-18T05:09:17;38.97;;;23.57;;
18720;SDS011;9489;50.948;3.114;2022-12-18T05:11:43;36.97;;;24.93;;
18720;SDS011;9489;50.948;3.114;2022-12-18T05:14:09;33.13;;;22.77;;
18720;SDS011;9489;50.948;3.114;2022-12-18T05:16:34;33.63;;;22.57;;
18720;SDS011;9489;50.948;3.114;2022-12-18T05:19:00;33.87;;;22.37;;
18720;SDS011;9489;50.948;3.114;2022-12-18T05:21:26;34.80;;;23.30;;
18720;SDS011;9489;50.948;3.114;2022-12-18T05:23:51;34.93;;;22.83;;
18720;SDS011;9489;50.948;3.114;2022-12-18T05:26:17;35.40;;;23.60;;
18720;SDS011;9489;50.948;3.114;2022-12-18T05:28:43;31.77;;;21.73;;
18720;SDS011;9489;50.948;3.114;2022-12-18T05:31:09;36.67;;;23.40;;
18720;SDS011;9489;50.948;3.114;2022-12-18T05:33:36;32.87;;;21.87;;
18720;SDS011;9489;50.948;3.114;2022-12-18T05:36:02;37.23;;;23.53;;
18720;SDS011;9489;50.948;3.114;2022-12-18T05:38:30;34.37;;;22.13;;
18720;SDS011;9489;50.948;3.114;2022-12-18T05:40:57;32.10;;;23.07;;
18720;SDS011;9489;50.948;3.114;2022-12-18T05:43:23;38.17;;;22.27;;
18720;SDS011;9489;50.948;3.114;2022-12-18T05:45:49;35.10;;;21.90;;
18720;SDS011;9489;50.948;3.114;2022-12-18T05:48:16;34.27;;;21.83;;
18720;SDS011;9489;50.948;3.114;2022-12-18T05:50:43;31.93;;;22.37;;
18720;SDS011;9489;50.948;3.114;2022-12-18T05:53:13;30.47;;;21.83;;
18720;SDS011;9489;50.948;3.114;2022-12-18T05:55:41;33.57;;;22.70;;
18720;SDS011;9489;50.948;3.114;2022-12-18T05:58:08;31.83;;;21.30;;
18720;SDS011;9489;50.948;3.114;2022-12-18T06:00:35;30.57;;;21.90;;
18720;SDS011;9489;50.948;3.114;2022-12-18T06:03:05;30.90;;;21.03;;
18720;SDS011;9489;50.948;3.114;2022-12-18T06:05:34;30.33;;;20.70;;
18720;SDS011;9489;50.948;3.114;2022-12-18T06:08:02;27.60;;;19.90;;
18720;SDS011;9489;50.948;3.114;2022-12-18T06:10:27;28.43;;;19.50;;
18720;SDS011;9489;50.948;3.114;2022-12-18T06:12:53;31.63;;;20.90;;
18720;SDS011;9489;50.948;3.114;2022-12-18T06:15:19;27.93;;;19.73;;
18720;SDS011;9489;50.948;3.114;2022-12-18T06:17:44;25.80;;;18.47;;
18720;SDS011;9489;50.948;3.114;2022-12-18T06:20:10;30.60;;;20.07;;
18720;SDS011;9489;50.948;3.114;2022-12-18T06:22:35;27.83;;;19.37;;
18720;SDS011;9489;50.948;3.114;2022-12-18T06:25:01;28.20;;;18.53;;
18720;SDS011;9489;50.948;3.114;2022-12-18T06:27:27;27.33;;;17.67;;
18720;SDS011;9489;50.948;3.114;2022-12-18T06:29:53;25.07;;;18.80;;
18720;SDS011;9489;50.948;3.114;2022-12-18T06:32:18;27.33;;;17.37;;
18720;SDS011;9489;50.948;3.114;2022-12-18T06:34:44;34.03;;;21.97;;
18720;SDS011;9489;50.948;3.114;2022-12-18T06:37:09;36.83;;;24.83;;
18720;SDS011;9489;50.948;3.114;2022-12-18T06:39:35;47.10;;;28.40;;
18720;SDS011;9489;50.948;3.114;2022-12-18T06:42:00;33.37;;;22.33;;
18720;SDS011;9489;50.948;3.114;2022-12-18T06:44:26;24.13;;;17.87;;
18720;SDS011;9489;50.948;3.114;2022-12-18T06:46:51;24.53;;;17.90;;
18720;SDS011;9489;50.948;3.114;2022-12-18T06:49:17;21.53;;;15.90;;
18720;SDS011;9489;50.948;3.114;2022-12-18T06:51:43;27.33;;;17.57;;
18720;SDS011;9489;50.948;3.114;2022-12-18T06:54:08;23.20;;;16.47;;
18720;SDS011;9489;50.948;3.114;2022-12-18T06:56:34;24.77;;;17.77;;
18720;SDS011;9489;50.948;3.114;2022-12-18T06:59:00;23.47;;;16.73;;
18720;SDS011;9489;50.948;3.114;2022-12-18T07:01:25;22.00;;;14.97;;
18720;SDS011;9489;50.948;3.114;2022-12-18T07:03:55;22.07;;;15.33;;
18720;SDS011;9489;50.948;3.114;2022-12-18T07:06:22;22.43;;;16.27;;
18720;SDS011;9489;50.948;3.114;2022-12-18T07:08:49;21.73;;;16.20;;
18720;SDS011;9489;50.948;3.114;2022-12-18T07:11:16;23.53;;;16.57;;
18720;SDS011;9489;50.948;3.114;2022-12-18T07:13:43;23.50;;;15.67;;
18720;SDS011;9489;50.948;3.114;2022-12-18T07:16:13;18.10;;;14.30;;
18720;SDS011;9489;50.948;3.114;2022-12-18T07:18:40;21.67;;;15.07;;
18720;SDS011;9489;50.948;3.114;2022-12-18T07:21:07;21.33;;;16.13;;
18720;SDS011;9489;50.948;3.114;2022-12-18T07:23:34;21.83;;;15.57;;
18720;SDS011;9489;50.948;3.114;2022-12-18T07:26:02;23.20;;;14.87;;
18720;SDS011;9489;50.948;3.114;2022-12-18T07:28:29;23.57;;;15.17;;
18720;SDS011;9489;50.948;3.114;2022-12-18T07:30:55;18.77;;;15.53;;
18720;SDS011;9489;50.948;3.114;2022-12-18T07:33:21;18.20;;;12.67;;
18720;SDS011;9489;50.948;3.114;2022-12-18T07:35:46;21.63;;;14.57;;
18720;SDS011;9489;50.948;3.114;2022-12-18T07:38:12;20.63;;;15.30;;
18720;SDS011;9489;50.948;3.114;2022-12-18T07:40:39;20.40;;;14.33;;
18720;SDS011;9489;50.948;3.114;2022-12-18T07:43:05;21.37;;;15.17;;
18720;SDS011;9489;50.948;3.114;2022-12-18T07:45:30;17.83;;;12.93;;
18720;SDS011;9489;50.948;3.114;2022-12-18T07:47:56;19.13;;;13.53;;
18720;SDS011;9489;50.948;3.114;2022-12-18T07:50:22;19.57;;;14.33;;
18720;SDS011;9489;50.948;3.114;2022-12-18T07:52:49;18.53;;;13.47;;
18720;SDS011;9489;50.948;3.114;2022-12-18T07:55:14;20.87;;;13.93;;
18720;SDS011;9489;50.948;3.114;2022-12-18T07:57:40;16.50;;;12.63;;
18720;SDS011;9489;50.948;3.114;2022-12-18T08:00:06;20.50;;;13.13;;
18720;SDS011;9489;50.948;3.114;2022-12-18T08:02:32;18.57;;;13.80;;
18720;SDS011;9489;50.948;3.114;2022-12-18T08:04:57;19.43;;;13.07;;
18720;SDS011;9489;50.948;3.114;2022-12-18T08:07:23;20.00;;;13.33;;
18720;SDS011;9489;50.948;3.114;2022-12-18T08:09:49;19.10;;;13.80;;
18720;SDS011;9489;50.948;3.114;2022-12-18T08:12:14;19.63;;;13.73;;
18720;SDS011;9489;50.948;3.114;2022-12-18T08:14:40;18.20;;;13.53;;
18720;SDS011;9489;50.948;3.114;2022-12-18T08:17:06;20.13;;;13.60;;
18720;SDS011;9489;50.948;3.114;2022-12-18T08:19:31;20.00;;;13.90;;
18720;SDS011;9489;50.948;3.114;2022-12-18T08:21:57;24.17;;;15.93;;
18720;SDS011;9489;50.948;3.114;2022-12-18T08:24:22;19.80;;;14.33;;
18720;SDS011;9489;50.948;3.114;2022-12-18T08:26:48;43.03;;;23.83;;
18720;SDS011;9489;50.948;3.114;2022-12-18T08:29:13;19.57;;;12.87;;
18720;SDS011;9489;50.948;3.114;2022-12-18T08:31:40;27.13;;;18.43;;
18720;SDS011;9489;50.948;3.114;2022-12-18T08:34:05;21.73;;;14.13;;
18720;SDS011;9489;50.948;3.114;2022-12-18T08:36:33;22.03;;;14.80;;
18720;SDS011;9489;50.948;3.114;2022-12-18T08:38:58;30.23;;;22.13;;
18720;SDS011;9489;50.948;3.114;2022-12-18T08:41:24;22.70;;;14.83;;
18720;SDS011;9489;50.948;3.114;2022-12-18T08:43:50;49.00;;;32.67;;
18720;SDS011;9489;50.948;3.114;2022-12-18T08:46:35;20.70;;;15.07;;
18720;SDS011;9489;50.948;3.114;2022-12-18T08:49:05;19.60;;;14.63;;
18720;SDS011;9489;50.948;3.114;2022-12-18T08:51:32;22.17;;;15.67;;
18720;SDS011;9489;50.948;3.114;2022-12-18T08:53:58;24.27;;;15.37;;
18720;SDS011;9489;50.948;3.114;2022-12-18T08:56:23;20.70;;;15.80;;
18720;SDS011;9489;50.948;3.114;2022-12-18T08:58:53;21.00;;;15.10;;
18720;SDS011;9489;50.948;3.114;2022-12-18T09:01:19;20.17;;;15.40;;
18720;SDS011;9489;50.948;3.114;2022-12-18T09:03:45;21.37;;;15.13;;
18720;SDS011;9489;50.948;3.114;2022-12-18T09:06:13;20.13;;;15.30;;
18720;SDS011;9489;50.948;3.114;2022-12-18T09:08:40;19.07;;;14.20;;
18720;SDS011;9489;50.948;3.114;2022-12-18T09:11:11;19.87;;;15.20;;
18720;SDS011;9489;50.948;3.114;2022-12-18T09:13:39;23.73;;;15.37;;
18720;SDS011;9489;50.948;3.114;2022-12-18T09:16:04;23.03;;;16.23;;
18720;SDS011;9489;50.948;3.114;2022-12-18T09:18:30;21.57;;;15.67;;
18720;SDS011;9489;50.948;3.114;2022-12-18T09:20:56;21.23;;;16.10;;
18720;SDS011;9489;50.948;3.114;2022-12-18T09:23:21;22.20;;;16.47;;
18720;SDS011;9489;50.948;3.114;2022-12-18T09:25:47;23.70;;;16.27;;
18720;SDS011;9489;50.948;3.114;2022-12-18T09:28:15;23.37;;;15.70;;
18720;SDS011;9489;50.948;3.114;2022-12-18T09:30:43;20.27;;;16.30;;
18720;SDS011;9489;50.948;3.114;2022-12-18T09:33:10;23.57;;;16.90;;
18720;SDS011;9489;50.948;3.114;2022-12-18T09:35:36;22.83;;;16.00;;
18720;SDS011;9489;50.948;3.114;2022-12-18T09:38:03;23.00;;;16.40;;
18720;SDS011;9489;50.948;3.114;2022-12-18T09:40:31;25.73;;;16.23;;
18720;SDS011;9489;50.948;3.114;2022-12-18T09:43:06;24.90;;;17.70;;
18720;SDS011;9489;50.948;3.114;2022-12-18T09:45:44;20.93;;;16.90;;
18720;SDS011;9489;50.948;3.114;2022-12-18T09:48:19;22.53;;;16.40;;
18720;SDS011;9489;50.948;3.114;2022-12-18T09:51:13;23.90;;;17.03;;
18720;SDS011;9489;50.948;3.114;2022-12-18T09:53:42;26.50;;;18.63;;
18720;SDS011;9489;50.948;3.114;2022-12-18T09:56:15;23.80;;;17.67;;
18720;SDS011;9489;50.948;3.114;2022-12-18T09:58:45;22.07;;;15.77;;
18720;SDS011;9489;50.948;3.114;2022-12-18T10:01:15;25.07;;;18.10;;
18720;SDS011;9489;50.948;3.114;2022-12-18T10:03:46;22.70;;;18.03;;
18720;SDS011;9489;50.948;3.114;2022-12-18T10:14:23;22.57;;;17.40;;
18720;SDS011;9489;50.948;3.114;2022-12-18T10:28:33;26.10;;;18.90;;
18720;SDS011;9489;50.948;3.114;2022-12-18T10:31:01;26.57;;;19.17;;
18720;SDS011;9489;50.948;3.114;2022-12-18T10:33:30;25.53;;;20.47;;
18720;SDS011;9489;50.948;3.114;2022-12-18T10:35:57;25.03;;;19.77;;
18720;SDS011;9489;50.948;3.114;2022-12-18T10:38:24;28.43;;;20.40;;
18720;SDS011;9489;50.948;3.114;2022-12-18T10:46:50;27.97;;;21.60;;
18720;SDS011;9489;50.948;3.114;2022-12-18T10:49:22;28.03;;;20.00;;
18720;SDS011;9489;50.948;3.114;2022-12-18T10:51:50;28.53;;;20.10;;
18720;SDS011;9489;50.948;3.114;2022-12-18T10:54:29;31.17;;;22.30;;
18720;SDS011;9489;50.948;3.114;2022-12-18T10:57:13;30.47;;;22.43;;
18720;SDS011;9489;50.948;3.114;2022-12-18T10:59:53;30.23;;;23.13;;
18720;SDS011;9489;50.948;3.114;2022-12-18T11:02:33;29.97;;;21.73;;
18720;SDS011;9489;50.948;3.114;2022-12-18T11:05:01;28.97;;;21.10;;
18720;SDS011;9489;50.948;3.114;2022-12-18T11:07:48;29.23;;;21.47;;
18720;SDS011;9489;50.948;3.114;2022-12-18T11:10:19;32.20;;;23.47;;
18720;SDS011;9489;50.948;3.114;2022-12-18T11:12:47;33.37;;;23.07;;
18720;SDS011;9489;50.948;3.114;2022-12-18T11:15:15;31.67;;;22.67;;
18720;SDS011;9489;50.948;3.114;2022-12-18T11:17:45;33.17;;;23.00;;
18720;SDS011;9489;50.948;3.114;2022-12-18T11:20:24;33.07;;;22.43;;
18720;SDS011;9489;50.948;3.114;2022-12-18T11:23:00;31.63;;;22.20;;
18720;SDS011;9489;50.948;3.114;2022-12-18T11:25:35;32.70;;;22.90;;
18720;SDS011;9489;50.948;3.114;2022-12-18T11:33:42;37.13;;;25.83;;
18720;SDS011;9489;50.948;3.114;2022-12-18T11:36:17;33.13;;;24.17;;
18720;SDS011;9489;50.948;3.114;2022-12-18T11:38:45;32.17;;;24.13;;
18720;SDS011;9489;50.948;3.114;2022-12-18T11:48:58;29.70;;;23.83;;
18720;SDS011;9489;50.948;3.114;2022-12-18T11:51:33;34.90;;;24.93;;
18720;SDS011;9489;50.948;3.114;2022-12-18T11:54:12;32.83;;;25.60;;
18720;SDS011;9489;50.948;3.114;2022-12-18T11:56:41;32.43;;;24.27;;
18720;SDS011;9489;50.948;3.114;2022-12-18T11:59:24;36.03;;;26.17;;
18720;SDS011;9489;50.948;3.114;2022-12-18T12:01:55;36.33;;;25.30;;
18720;SDS011;9489;50.948;3.114;2022-12-18T12:07:15;37.20;;;27.10;;
18720;SDS011;9489;50.948;3.114;2022-12-18T12:09:50;34.73;;;26.20;;
18720;SDS011;9489;50.948;3.114;2022-12-18T12:12:34;36.87;;;25.00;;
18720;SDS011;9489;50.948;3.114;2022-12-18T12:18:08;35.47;;;26.30;;
18720;SDS011;9489;50.948;3.114;2022-12-18T12:20:46;34.20;;;24.73;;
18720;SDS011;9489;50.948;3.114;2022-12-18T12:25:56;35.47;;;26.10;;
18720;SDS011;9489;50.948;3.114;2022-12-18T12:36:51;35.30;;;26.67;;
18720;SDS011;9489;50.948;3.114;2022-12-18T12:39:22;37.27;;;27.37;;
18720;SDS011;9489;50.948;3.114;2022-12-18T12:41:55;38.47;;;25.47;;
18720;SDS011;9489;50.948;3.114;2022-12-18T12:44:45;35.67;;;25.93;;
18720;SDS011;9489;50.948;3.114;2022-12-18T12:47:19;37.20;;;26.53;;
18720;SDS011;9489;50.948;3.114;2022-12-18T12:49:49;39.27;;;27.03;;
18720;SDS011;9489;50.948;3.114;2022-12-18T12:52:17;38.10;;;25.90;;
18720;SDS011;9489;50.948;3.114;2022-12-18T12:54:52;36.90;;;28.47;;
18720;SDS011;9489;50.948;3.114;2022-12-18T12:57:23;35.87;;;26.47;;
18720;SDS011;9489;50.948;3.114;2022-12-18T13:02:35;38.90;;;26.83;;
18720;SDS011;9489;50.948;3.114;2022-12-18T13:10:31;36.20;;;26.17;;
18720;SDS011;9489;50.948;3.114;2022-12-18T13:15:42;37.13;;;24.53;;
18720;SDS011;9489;50.948;3.114;2022-12-18T13:20:35;33.60;;;23.53;;
18720;SDS011;9489;50.948;3.114;2022-12-18T13:25:50;38.10;;;26.93;;
18720;SDS011;9489;50.948;3.114;2022-12-18T13:28:16;38.00;;;26.53;;
18720;SDS011;9489;50.948;3.114;2022-12-18T13:31:02;36.50;;;25.63;;
18720;SDS011;9489;50.948;3.114;2022-12-18T13:39:09;37.40;;;25.23;;
18720;SDS011;9489;50.948;3.114;2022-12-18T13:41:42;38.13;;;24.80;;
18720;SDS011;9489;50.948;3.114;2022-12-18T13:44:13;33.60;;;23.83;;
18720;SDS011;9489;50.948;3.114;2022-12-18T13:46:55;38.57;;;26.33;;
18720;SDS011;9489;50.948;3.114;2022-12-18T13:49:36;37.43;;;25.53;;
18720;SDS011;9489;50.948;3.114;2022-12-18T13:52:33;33.17;;;23.47;;
18720;SDS011;9489;50.948;3.114;2022-12-18T13:55:03;37.73;;;25.40;;
18720;SDS011;9489;50.948;3.114;2022-12-18T13:57:36;33.23;;;24.10;;
18720;SDS011;9489;50.948;3.114;2022-12-18T14:02:52;36.50;;;25.03;;
18720;SDS011;9489;50.948;3.114;2022-12-18T14:05:22;33.97;;;24.70;;
18720;SDS011;9489;50.948;3.114;2022-12-18T14:07:48;36.43;;;23.87;;
18720;SDS011;9489;50.948;3.114;2022-12-18T14:10:15;34.13;;;23.93;;
18720;SDS011;9489;50.948;3.114;2022-12-18T14:12:44;38.50;;;25.20;;
18720;SDS011;9489;50.948;3.114;2022-12-18T14:17:52;33.10;;;21.57;;
18720;SDS011;9489;50.948;3.114;2022-12-18T14:20:28;37.30;;;25.80;;
18720;SDS011;9489;50.948;3.114;2022-12-18T14:22:56;38.87;;;25.03;;
18720;SDS011;9489;50.948;3.114;2022-12-18T14:27:51;37.93;;;24.10;;
18720;SDS011;9489;50.948;3.114;2022-12-18T14:30:35;35.53;;;23.53;;
18720;SDS011;9489;50.948;3.114;2022-12-18T14:33:08;37.53;;;24.67;;
18720;SDS011;9489;50.948;3.114;2022-12-18T14:35:43;37.90;;;24.30;;
18720;SDS011;9489;50.948;3.114;2022-12-18T14:38:31;37.33;;;24.07;;
18720;SDS011;9489;50.948;3.114;2022-12-18T14:43:32;36.53;;;24.23;;
18720;SDS011;9489;50.948;3.114;2022-12-18T14:46:02;37.80;;;25.17;;
18720;SDS011;9489;50.948;3.114;2022-12-18T14:53:42;40.83;;;25.10;;
18720;SDS011;9489;50.948;3.114;2022-12-18T14:56:23;35.53;;;21.27;;
18720;SDS011;9489;50.948;3.114;2022-12-18T14:59:03;36.13;;;24.87;;
18720;SDS011;9489;50.948;3.114;2022-12-18T15:02:24;38.03;;;24.70;;
18720;SDS011;9489;50.948;3.114;2022-12-18T15:04:29;38.37;;;24.40;;
18720;SDS011;9489;50.948;3.114;2022-12-18T15:07:11;35.87;;;23.23;;
18720;SDS011;9489;50.948;3.114;2022-12-18T15:09:38;39.77;;;25.33;;
18720;SDS011;9489;50.948;3.114;2022-12-18T15:12:05;37.57;;;24.90;;
18720;SDS011;9489;50.948;3.114;2022-12-18T15:14:44;35.27;;;24.43;;
18720;SDS011;9489;50.948;3.114;2022-12-18T15:17:17;36.37;;;24.63;;
18720;SDS011;9489;50.948;3.114;2022-12-18T15:19:50;38.03;;;25.83;;
18720;SDS011;9489;50.948;3.114;2022-12-18T15:22:35;39.27;;;25.57;;
18720;SDS011;9489;50.948;3.114;2022-12-18T15:25:03;41.23;;;25.90;;
18720;SDS011;9489;50.948;3.114;2022-12-18T15:27:54;39.97;;;25.10;;
18720;SDS011;9489;50.948;3.114;2022-12-18T15:30:23;41.33;;;26.87;;
18720;SDS011;9489;50.948;3.114;2022-12-18T15:32:49;38.97;;;25.67;;
18720;SDS011;9489;50.948;3.114;2022-12-18T15:35:21;37.30;;;25.17;;
18720;SDS011;9489;50.948;3.114;2022-12-18T15:37:51;41.13;;;25.23;;
18720;SDS011;9489;50.948;3.114;2022-12-18T15:40:18;38.60;;;26.50;;
18720;SDS011;9489;50.948;3.114;2022-12-18T15:42:45;39.33;;;24.97;;
18720;SDS011;9489;50.948;3.114;2022-12-18T15:45:30;39.57;;;24.67;;
18720;SDS011;9489;50.948;3.114;2022-12-18T15:47:56;35.83;;;25.27;;
18720;SDS011;9489;50.948;3.114;2022-12-18T15:50:22;39.83;;;23.83;;
18720;SDS011;9489;50.948;3.114;2022-12-18T15:52:48;39.57;;;25.53;;
18720;SDS011;9489;50.948;3.114;2022-12-18T15:55:20;41.20;;;26.50;;
18720;SDS011;9489;50.948;3.114;2022-12-18T15:58:06;40.20;;;27.47;;
18720;SDS011;9489;50.948;3.114;2022-12-18T16:00:33;41.43;;;26.50;;
18720;SDS011;9489;50.948;3.114;2022-12-18T16:02:59;37.13;;;25.30;;
18720;SDS011;9489;50.948;3.114;2022-12-18T16:05:25;42.53;;;25.43;;
18720;SDS011;9489;50.948;3.114;2022-12-18T16:07:52;43.00;;;26.27;;
18720;SDS011;9489;50.948;3.114;2022-12-18T16:10:18;40.60;;;24.60;;
18720;SDS011;9489;50.948;3.114;2022-12-18T16:12:44;40.30;;;25.57;;
18720;SDS011;9489;50.948;3.114;2022-12-18T16:15:11;38.33;;;25.53;;
18720;SDS011;9489;50.948;3.114;2022-12-18T16:17:39;43.87;;;26.57;;
18720;SDS011;9489;50.948;3.114;2022-12-18T16:20:05;41.23;;;25.93;;
18720;SDS011;9489;50.948;3.114;2022-12-18T16:22:36;43.10;;;26.47;;
18720;SDS011;9489;50.948;3.114;2022-12-18T16:25:02;40.33;;;26.17;;
18720;SDS011;9489;50.948;3.114;2022-12-18T16:27:30;40.40;;;25.60;;
18720;SDS011;9489;50.948;3.114;2022-12-18T16:29:55;39.00;;;24.97;;
18720;SDS011;9489;50.948;3.114;2022-12-18T16:32:21;39.33;;;26.93;;
18720;SDS011;9489;50.948;3.114;2022-12-18T16:34:47;41.37;;;25.70;;
18720;SDS011;9489;50.948;3.114;2022-12-18T16:37:14;41.40;;;24.77;;
18720;SDS011;9489;50.948;3.114;2022-12-18T16:39:40;39.77;;;26.90;;
18720;SDS011;9489;50.948;3.114;2022-12-18T16:42:09;38.33;;;24.63;;
18720;SDS011;9489;50.948;3.114;2022-12-18T16:44:44;40.63;;;24.93;;
18720;SDS011;9489;50.948;3.114;2022-12-18T16:47:11;45.47;;;26.87;;
18720;SDS011;9489;50.948;3.114;2022-12-18T16:49:37;54.07;;;32.13;;
18720;SDS011;9489;50.948;3.114;2022-12-18T16:52:03;42.63;;;26.90;;